Royal City, Washington
Current Conditions -  °F | °C
As of 12:52 AM on Saturday 22 Nov 2014 (Local Time) from KMWH Reporting Station
Haze Haze  
Wind Chill: 24°   Ceiling: Unl
Heat Index: 32°   Visibility: 4mi
Dew Point: 30°   Wind: 10mph
Humidity: 92%   Direction: 190°S
Pressure: 29.44"   Gusts: NA
Location:  46.9°N, 119.63°W
Report Text: KMWH 220852Z AUTO 19009KT 4SM BR CLR 00/M01 A2944 RMK AO2 SLP978 T00001011 53006
Loading
Personal Weather Stations






























Interactive Weather Map New forecast layout! Learn more

10-Day Weather Forecast

Advertisements
Track Severe Weather on mobile